createdAt,value
2019-06-08T00:01:44.087Z,0.90
2019-06-08T00:04:14.398Z,0.87
2019-06-08T00:06:44.280Z,0.70
2019-06-08T00:09:14.726Z,1.03
2019-06-08T00:11:45.195Z,0.70
2019-06-08T00:14:15.154Z,0.90
2019-06-08T00:16:45.484Z,1.10
2019-06-08T00:19:15.309Z,0.80
2019-06-08T00:21:46.295Z,1.00
2019-06-08T00:24:15.751Z,0.83
2019-06-08T00:26:45.335Z,0.83
2019-06-08T00:29:14.536Z,0.90
2019-06-08T00:31:44.416Z,0.70
2019-06-08T00:34:14.504Z,1.23
2019-06-08T00:36:44.985Z,1.00
2019-06-08T00:42:08.591Z,1.00
2019-06-08T00:44:37.882Z,1.20
2019-06-08T00:47:07.189Z,0.80
2019-06-08T00:49:36.386Z,0.87
2019-06-08T00:52:05.639Z,0.90
2019-06-08T00:54:35.148Z,1.20
2019-06-08T00:57:04.788Z,0.83
2019-06-08T00:59:33.989Z,1.27
2019-06-08T01:02:03.236Z,1.10
2019-06-08T01:04:32.788Z,0.90
2019-06-08T01:07:02.469Z,1.43
2019-06-08T01:09:31.668Z,1.40
2019-06-08T01:12:00.904Z,1.00
2019-06-08T01:14:30.101Z,1.00
2019-06-08T01:16:59.350Z,1.00
2019-06-08T01:19:29.649Z,0.97
2019-06-08T01:21:59.531Z,1.37
2019-06-08T01:24:40.996Z,0.87
2019-06-08T01:27:30.213Z,1.07
2019-06-08T01:29:59.381Z,0.80
2019-06-08T01:32:28.958Z,0.70
2019-06-08T01:34:58.164Z,0.63
2019-06-08T01:37:47.116Z,0.87
2019-06-08T01:40:16.334Z,0.87
2019-06-08T01:42:57.320Z,1.10
2019-06-08T01:45:55.994Z,0.53
2019-06-08T01:48:26.283Z,0.53
2019-06-08T01:50:56.172Z,0.63
2019-06-08T01:53:26.716Z,0.60
2019-06-08T01:55:56.755Z,0.60
2019-06-08T01:58:27.325Z,0.50
2019-06-08T02:00:56.956Z,0.57
2019-06-08T02:03:26.401Z,0.40
2019-06-08T02:05:57.562Z,0.50
2019-06-08T02:08:26.767Z,0.70
2019-06-08T02:10:56.343Z,0.50
2019-06-08T02:13:26.806Z,1.00
2019-06-08T02:15:56.536Z,0.50
2019-06-08T02:18:36.510Z,0.73
2019-06-08T02:20:57.028Z,0.50
2019-06-08T02:23:26.991Z,0.60
2019-06-08T02:25:57.784Z,0.60
2019-06-08T02:28:27.439Z,0.63
2019-06-08T02:30:57.988Z,0.60
2019-06-08T02:33:28.275Z,0.80
2019-06-08T02:35:58.459Z,0.60
2019-06-08T02:38:29.775Z,0.50
2019-06-08T02:40:58.859Z,0.50
2019-06-08T02:43:28.986Z,0.80
2019-06-08T02:45:59.726Z,0.97
2019-06-08T02:48:29.542Z,1.17
2019-06-08T02:57:23.219Z,0.83
2019-06-08T03:00:12.890Z,0.70
2019-06-08T03:03:21.815Z,0.70
2019-06-08T03:12:35.254Z,0.67
2019-06-08T03:15:45.060Z,0.70
2019-06-08T03:18:14.317Z,0.93
2019-06-08T03:20:43.510Z,0.60
2019-06-08T03:23:13.140Z,0.70
2019-06-08T03:25:51.938Z,1.43
2019-06-08T03:28:13.355Z,1.10
2019-06-08T03:30:52.543Z,0.80
2019-06-08T03:33:13.901Z,0.60
2019-06-08T03:35:52.569Z,0.93
2019-06-08T03:38:14.573Z,0.80
2019-06-08T03:40:45.302Z,0.60
2019-06-08T03:43:15.096Z,0.50
2019-06-08T03:45:45.391Z,0.60
2019-06-08T03:48:15.281Z,0.40
2019-06-08T03:50:46.314Z,0.47
2019-06-08T03:53:15.970Z,0.97
2019-06-08T03:55:47.197Z,1.80
2019-06-08T03:58:16.523Z,1.00
2019-06-08T04:00:47.054Z,1.27
2019-06-08T04:03:16.871Z,0.50
2019-06-08T04:05:46.576Z,0.90
2019-06-08T04:08:17.061Z,0.60
2019-06-08T04:10:46.948Z,0.70
2019-06-08T04:13:17.543Z,0.63
2019-06-08T04:15:47.164Z,0.77
2019-06-08T04:18:17.718Z,0.67
2019-06-08T04:20:48.843Z,1.67
2019-06-08T04:23:18.282Z,1.07
2019-06-08T04:25:47.862Z,1.20
2019-06-08T04:28:18.443Z,0.40
2019-06-08T04:30:49.838Z,0.80
2019-06-08T04:33:19.264Z,0.60
2019-06-08T04:35:50.645Z,0.40
2019-06-08T04:38:20.145Z,0.70
2019-06-08T04:40:50.178Z,0.80
2019-06-08T04:43:20.321Z,1.03
2019-06-08T04:45:49.928Z,0.70
2019-06-08T04:48:20.790Z,0.87
2019-06-08T04:50:50.040Z,0.90
2019-06-08T04:56:07.848Z,0.50
2019-06-08T04:58:39.082Z,0.70
2019-06-08T05:01:08.028Z,0.97
2019-06-08T05:03:39.083Z,0.80
2019-06-08T05:06:08.226Z,0.80
2019-06-08T05:08:39.049Z,0.57
2019-06-08T05:11:09.034Z,0.60
2019-06-08T05:13:39.141Z,0.70
2019-06-08T05:16:09.579Z,0.87
2019-06-08T05:18:39.269Z,0.97
2019-06-08T05:21:08.888Z,1.10
2019-06-08T05:23:39.261Z,0.90
2019-06-08T05:26:09.432Z,1.20
2019-06-08T05:28:39.158Z,1.00
2019-06-08T05:31:08.398Z,0.90
2019-06-08T05:33:37.606Z,0.80
2019-06-08T05:36:06.812Z,0.60
2019-06-08T05:38:36.090Z,0.60
2019-06-08T05:41:05.293Z,0.67
2019-06-08T05:43:34.547Z,0.80
2019-06-08T05:46:04.083Z,0.60
2019-06-08T05:48:33.643Z,0.70
2019-06-08T05:51:04.187Z,0.77
2019-06-08T05:53:34.188Z,0.73
2019-06-08T05:56:03.667Z,0.53
2019-06-08T05:58:32.918Z,0.70
2019-06-08T06:01:02.135Z,0.80
2019-06-08T06:03:31.517Z,0.80
2019-06-08T06:06:00.740Z,0.80
2019-06-08T06:08:29.994Z,1.13
2019-06-08T06:10:59.193Z,0.67
2019-06-08T06:13:28.795Z,0.87
2019-06-08T06:15:58.005Z,0.70
2019-06-08T06:18:27.303Z,0.70
2019-06-08T06:21:09.887Z,0.77
2019-06-08T06:23:27.435Z,0.97
2019-06-08T06:25:56.736Z,1.47
2019-06-08T06:28:26.228Z,1.27
2019-06-08T06:30:55.488Z,1.40
2019-06-08T06:33:24.693Z,1.00
2019-06-08T06:35:53.953Z,0.80
2019-06-08T06:38:23.165Z,1.20
2019-06-08T06:40:52.432Z,0.80
2019-06-08T06:43:22.249Z,0.90
2019-06-08T06:45:52.227Z,1.20
2019-06-08T06:48:23.750Z,2.70
2019-06-08T06:50:53.797Z,0.70
2019-06-08T06:53:22.983Z,0.87
2019-06-08T06:55:53.326Z,1.03
2019-06-08T06:58:23.435Z,1.50
2019-06-08T07:03:47.983Z,1.30
2019-06-08T07:06:18.695Z,0.80
2019-06-08T07:08:48.244Z,0.77
2019-06-08T07:11:18.890Z,1.00
2019-06-08T07:13:48.716Z,0.83
2019-06-08T07:16:19.593Z,1.20
2019-06-08T07:18:50.335Z,1.00
2019-06-08T07:21:19.934Z,0.90
2019-06-08T07:23:50.822Z,0.90
2019-06-08T07:26:20.579Z,1.00
2019-06-08T07:28:51.857Z,0.90
2019-06-08T07:31:21.067Z,0.73
2019-06-08T07:33:51.885Z,0.97
2019-06-08T07:36:22.038Z,0.70
2019-06-08T07:38:51.586Z,0.70
2019-06-08T07:41:21.199Z,0.90
2019-06-08T07:43:50.771Z,0.80
2019-06-08T07:46:21.738Z,1.60
2019-06-08T07:48:52.228Z,0.70
2019-06-08T07:51:21.885Z,1.30
2019-06-08T07:53:51.545Z,0.80
2019-06-08T07:56:22.362Z,0.93
2019-06-08T07:58:53.178Z,0.70
2019-06-08T08:01:35.274Z,0.73
2019-06-08T08:03:54.138Z,0.77
2019-06-08T08:06:24.574Z,0.80
2019-06-08T08:08:54.810Z,1.03
2019-06-08T08:11:24.875Z,0.90
2019-06-08T08:13:54.871Z,0.80
2019-06-08T08:16:25.074Z,0.97
2019-06-08T08:18:55.547Z,0.90
2019-06-08T08:21:44.479Z,0.83
2019-06-08T08:24:13.775Z,0.80
2019-06-08T08:26:42.985Z,0.90
2019-06-08T08:29:12.602Z,0.90
2019-06-08T08:31:42.117Z,0.80
2019-06-08T08:34:11.362Z,1.10
2019-06-08T08:36:40.565Z,1.17
2019-06-08T08:39:09.922Z,0.80
2019-06-08T08:41:39.272Z,1.10
2019-06-08T08:44:08.453Z,1.37
2019-06-08T08:46:38.738Z,1.20
2019-06-08T08:52:03.698Z,1.23
2019-06-08T08:54:32.964Z,1.13
2019-06-08T08:57:05.047Z,1.10
2019-06-08T08:59:33.156Z,1.10
2019-06-08T09:02:03.105Z,1.03
2019-06-08T09:04:33.377Z,0.90
2019-06-08T09:07:06.897Z,0.90
2019-06-08T09:09:33.661Z,1.83
2019-06-08T09:12:04.467Z,2.50
2019-06-08T09:14:33.860Z,1.10
2019-06-08T09:17:03.624Z,0.87
2019-06-08T09:19:34.081Z,0.93
2019-06-08T09:22:04.069Z,0.90
2019-06-08T09:24:34.986Z,1.10
2019-06-08T09:27:04.626Z,1.27
2019-06-08T09:29:35.161Z,1.00
2019-06-08T09:32:04.443Z,0.83
2019-06-08T09:34:54.288Z,1.00
2019-06-08T09:37:42.776Z,0.97
2019-06-08T09:40:32.638Z,0.80
2019-06-08T09:43:06.310Z,1.13
2019-06-08T09:45:53.660Z,0.97
2019-06-08T09:48:33.817Z,1.00
2019-06-08T09:51:22.165Z,0.93
2019-06-08T09:53:51.369Z,0.97
2019-06-08T09:56:40.049Z,1.00
2019-06-08T09:59:28.607Z,1.00
2019-06-08T10:02:18.744Z,1.00
2019-06-08T10:04:49.370Z,1.30
2019-06-08T10:07:18.827Z,0.90
2019-06-08T10:09:50.164Z,1.00
2019-06-08T10:12:19.088Z,1.10
2019-06-08T10:14:48.990Z,1.70
2019-06-08T10:17:38.625Z,1.17
2019-06-08T10:23:29.832Z,1.20
2019-06-08T10:25:48.190Z,1.43
2019-06-08T10:28:21.440Z,1.30
2019-06-08T10:30:49.288Z,1.10
2019-06-08T10:33:40.661Z,1.40
2019-06-08T10:36:12.271Z,1.70
2019-06-08T10:38:41.180Z,1.57
2019-06-08T10:41:17.640Z,1.30
2019-06-08T10:43:42.495Z,1.10
2019-06-08T10:46:16.688Z,1.40
2019-06-08T10:48:42.716Z,1.10
2019-06-08T10:51:13.102Z,1.00
2019-06-08T10:54:02.189Z,0.93
2019-06-08T10:56:31.434Z,1.03
2019-06-08T10:59:03.465Z,1.00
2019-06-08T11:01:31.990Z,1.60
2019-06-08T11:04:01.976Z,1.07
2019-06-08T11:06:32.148Z,1.13
2019-06-08T11:09:04.277Z,1.20
2019-06-08T11:11:32.648Z,1.00
2019-06-08T11:14:03.511Z,0.90
2019-06-08T11:16:33.187Z,1.03
2019-06-08T11:19:03.052Z,1.00
2019-06-08T11:21:33.364Z,1.30
2019-06-08T11:24:13.300Z,0.80
2019-06-08T11:26:33.607Z,1.20
2019-06-08T11:29:03.034Z,1.47
2019-06-08T11:31:33.800Z,1.33
2019-06-08T11:34:03.944Z,1.00
2019-06-08T11:36:33.993Z,1.00
2019-06-08T11:39:04.190Z,0.87
2019-06-08T11:41:34.341Z,1.17
2019-06-08T11:44:05.074Z,1.20
2019-06-08T11:46:34.509Z,0.70
2019-06-08T11:49:05.091Z,1.00
2019-06-08T11:52:14.093Z,1.10
2019-06-08T11:54:43.250Z,1.00
2019-06-08T11:57:12.999Z,0.90
2019-06-08T11:59:43.742Z,0.90
2019-06-08T12:02:14.253Z,1.10
2019-06-08T12:04:43.893Z,0.70
2019-06-08T12:07:13.990Z,0.90
2019-06-08T12:09:44.425Z,0.77
2019-06-08T12:12:17.783Z,1.33
2019-06-08T12:14:47.476Z,0.90
2019-06-08T12:17:21.706Z,0.90
2019-06-08T12:19:47.696Z,0.97
2019-06-08T12:22:21.687Z,0.80
2019-06-08T12:24:49.454Z,0.80
2019-06-08T12:27:29.513Z,0.80
2019-06-08T12:29:50.457Z,0.83
2019-06-08T12:32:20.583Z,0.90
2019-06-08T12:34:49.772Z,0.83
2019-06-08T12:37:22.211Z,0.90
2019-06-08T12:39:49.937Z,1.00
2019-06-08T12:42:22.977Z,1.10
2019-06-08T12:44:50.142Z,1.00
2019-06-08T12:47:25.834Z,0.80
2019-06-08T12:49:50.289Z,1.10
2019-06-08T12:52:21.958Z,0.90
2019-06-08T12:55:00.064Z,1.30
2019-06-08T12:57:22.160Z,1.00
2019-06-08T12:59:52.410Z,0.90
2019-06-08T13:02:24.071Z,1.10
2019-06-08T13:04:52.627Z,0.93
2019-06-08T13:07:22.203Z,1.10
2019-06-08T13:09:51.410Z,0.93
2019-06-08T13:12:21.886Z,0.90
2019-06-08T13:14:52.217Z,1.03
2019-06-08T13:17:21.917Z,0.93
2019-06-08T13:19:51.142Z,1.10
2019-06-08T13:22:27.967Z,0.93
2019-06-08T13:24:52.086Z,1.47
2019-06-08T13:27:23.214Z,1.05
2019-06-08T13:29:53.541Z,1.02
2019-06-08T13:32:22.742Z,0.90
2019-06-08T13:34:52.661Z,0.95
2019-06-08T13:37:22.257Z,0.93
2019-06-08T13:39:53.204Z,1.00
2019-06-08T13:42:23.182Z,0.90
2019-06-08T13:44:53.558Z,1.07
2019-06-08T13:47:23.155Z,1.10
2019-06-08T13:49:53.844Z,1.20
2019-06-08T13:52:24.193Z,0.90
2019-06-08T13:54:54.359Z,1.13
2019-06-08T13:57:25.073Z,0.90
2019-06-08T13:59:54.606Z,0.90
2019-06-08T14:02:28.531Z,1.30
2019-06-08T14:04:54.805Z,1.10
2019-06-08T14:07:28.479Z,1.10
2019-06-08T14:09:55.320Z,1.30
2019-06-08T14:12:25.795Z,1.25
2019-06-08T14:17:31.144Z,1.10
2019-06-08T14:20:00.427Z,1.00
2019-06-08T14:22:30.497Z,1.17
2019-06-08T14:25:00.172Z,0.93
2019-06-08T14:27:32.965Z,1.00
2019-06-08T14:30:00.425Z,1.10
2019-06-08T14:32:29.666Z,0.90
2019-06-08T14:34:59.870Z,1.22
2019-06-08T14:37:30.551Z,1.22
2019-06-08T14:40:00.886Z,1.00
2019-06-08T14:42:31.742Z,1.05
2019-06-08T14:45:01.430Z,1.20
2019-06-08T14:47:30.950Z,1.40
2019-06-08T14:50:01.579Z,1.40
2019-06-08T14:52:31.166Z,1.40
2019-06-08T14:55:00.421Z,1.30
2019-06-08T14:57:30.834Z,1.25
2019-06-08T15:00:08.329Z,1.50
2019-06-08T15:02:32.033Z,2.77
2019-06-08T15:05:01.300Z,2.50
2019-06-08T15:07:32.373Z,1.52
2019-06-08T15:10:01.419Z,1.40
2019-06-08T15:12:31.499Z,1.45
2019-06-08T15:15:01.606Z,1.17
2019-06-08T15:17:32.065Z,1.10
2019-06-08T15:20:01.809Z,1.10
2019-06-08T15:22:32.008Z,1.30
2019-06-08T15:25:02.329Z,1.95
2019-06-08T15:30:45.966Z,1.60
2019-06-08T15:33:15.189Z,2.00
2019-06-08T15:35:44.463Z,1.87
2019-06-08T15:38:13.676Z,2.08
2019-06-08T15:40:43.287Z,2.30
2019-06-08T15:43:12.971Z,1.72
2019-06-08T15:45:42.680Z,1.80
2019-06-08T15:48:12.249Z,1.70
2019-06-08T15:50:41.525Z,1.32
2019-06-08T15:53:10.772Z,1.50
2019-06-08T15:55:40.073Z,1.40
2019-06-08T15:58:09.284Z,1.25
2019-06-08T16:00:38.566Z,1.32
2019-06-08T16:03:07.882Z,1.37
2019-06-08T16:05:37.144Z,1.40
2019-06-08T16:08:06.750Z,1.42
2019-06-08T16:10:35.994Z,1.50
2019-06-08T16:13:05.289Z,1.42
2019-06-08T16:15:35.284Z,1.37
2019-06-08T16:18:05.648Z,1.45
2019-06-08T16:20:35.764Z,1.50
2019-06-08T16:23:06.685Z,1.40
2019-06-08T16:25:38.761Z,1.60
2019-06-08T16:28:06.957Z,1.40
2019-06-08T16:30:36.167Z,1.62
2019-06-08T16:33:05.872Z,1.30
2019-06-08T16:35:35.766Z,1.45
2019-06-08T16:38:06.384Z,1.40
2019-06-08T16:40:36.329Z,1.72
2019-06-08T16:43:07.021Z,1.55
2019-06-08T16:45:36.968Z,1.47
2019-06-08T16:48:06.274Z,1.62
2019-06-08T16:50:36.366Z,1.50
2019-06-08T16:53:06.777Z,1.30
2019-06-08T16:55:36.210Z,1.25
2019-06-08T16:58:05.500Z,4.40
2019-06-08T17:00:38.603Z,3.70
2019-06-08T17:03:05.851Z,2.75
2019-06-08T17:05:35.305Z,2.05
2019-06-08T17:08:04.610Z,1.50
2019-06-08T17:10:34.646Z,1.40
2019-06-08T17:13:05.152Z,1.57
2019-06-08T17:15:34.375Z,1.32
2019-06-08T17:18:04.274Z,1.37
2019-06-08T17:20:36.297Z,1.50
2019-06-08T17:23:05.926Z,1.50
2019-06-08T17:25:36.509Z,1.80
2019-06-08T17:28:06.248Z,1.80
2019-06-08T17:30:35.781Z,2.10
2019-06-08T17:33:06.844Z,1.90
2019-06-08T17:35:37.587Z,1.95
2019-06-08T17:38:07.439Z,1.92
2019-06-08T17:40:38.050Z,1.67
2019-06-08T17:43:08.032Z,1.70
2019-06-08T17:45:38.507Z,2.08
2019-06-08T17:48:08.888Z,1.90
2019-06-08T17:50:38.687Z,2.00
2019-06-08T17:53:09.068Z,1.80
2019-06-08T17:55:39.480Z,2.05
2019-06-08T17:58:09.581Z,2.27
2019-06-08T18:00:39.484Z,2.67
2019-06-08T18:03:09.780Z,2.58
2019-06-08T18:05:42.303Z,2.12
2019-06-08T18:08:10.014Z,2.08
2019-06-08T18:10:41.447Z,2.45
2019-06-08T18:13:10.256Z,2.10
2019-06-08T18:15:41.548Z,1.90
2019-06-08T18:18:11.204Z,1.92
2019-06-08T18:20:42.099Z,2.20
2019-06-08T18:23:11.474Z,2.40
2019-06-08T18:25:42.104Z,2.52
2019-06-08T18:28:13.592Z,1.80
2019-06-08T18:30:44.748Z,1.87
2019-06-08T18:33:14.309Z,1.85
2019-06-08T18:35:44.597Z,2.15
2019-06-08T18:38:14.955Z,1.80
2019-06-08T18:40:45.560Z,2.00
2019-06-08T18:43:17.053Z,2.40
2019-06-08T18:48:57.736Z,2.10
2019-06-08T18:51:28.094Z,1.90
2019-06-08T18:54:08.588Z,1.60
2019-06-08T18:56:28.696Z,2.20
2019-06-08T18:58:58.440Z,1.93
2019-06-08T19:01:27.949Z,2.35
2019-06-08T19:03:58.697Z,2.08
2019-06-08T19:09:38.779Z,1.93
2019-06-08T19:12:07.520Z,1.80
2019-06-08T19:14:37.778Z,1.73
2019-06-08T19:17:07.946Z,2.10
2019-06-08T19:19:41.253Z,1.70
2019-06-08T19:22:08.722Z,2.10
2019-06-08T19:24:40.748Z,1.90
2019-06-08T19:27:08.962Z,2.00
2019-06-08T19:29:41.777Z,2.20
2019-06-08T19:32:09.216Z,1.67
2019-06-08T19:34:40.631Z,2.00
2019-06-08T19:37:09.895Z,1.57
2019-06-08T19:39:43.128Z,2.27
2019-06-08T19:42:10.979Z,2.13
2019-06-08T19:44:46.662Z,1.80
2019-06-08T19:47:11.618Z,2.00
2019-06-08T19:49:41.828Z,2.00
2019-06-08T19:52:12.495Z,2.03
2019-06-08T19:54:43.646Z,2.50
2019-06-08T19:57:12.687Z,2.47
2019-06-08T19:59:41.899Z,2.10
2019-06-08T20:02:11.151Z,2.23
2019-06-08T20:04:40.642Z,2.10
2019-06-08T20:07:11.400Z,2.77
2019-06-08T20:09:41.103Z,2.10
2019-06-08T20:12:11.611Z,2.23
2019-06-08T20:14:41.305Z,2.57
2019-06-08T20:17:11.756Z,2.20
2019-06-08T20:19:41.041Z,2.43
2019-06-08T20:22:10.265Z,2.60
2019-06-08T20:24:39.533Z,1.97
2019-06-08T20:27:10.288Z,2.40
2019-06-08T20:29:41.193Z,2.40
2019-06-08T20:32:10.862Z,2.10
2019-06-08T20:34:40.150Z,1.87
2019-06-08T20:37:09.717Z,2.10
2019-06-08T20:39:39.833Z,2.17
2019-06-08T20:42:11.917Z,1.90
2019-06-08T20:44:40.045Z,2.63
2019-06-08T20:47:09.265Z,1.93
2019-06-08T20:49:38.551Z,2.00
2019-06-08T20:52:08.635Z,2.10
2019-06-08T20:54:39.084Z,2.10
2019-06-08T20:57:08.321Z,1.97
2019-06-08T20:59:40.015Z,2.40
2019-06-08T21:02:08.876Z,2.17
2019-06-08T21:04:38.466Z,2.30
2019-06-08T21:07:09.059Z,2.40
2019-06-08T21:09:38.632Z,2.53
2019-06-08T21:12:07.889Z,2.40
2019-06-08T21:14:37.956Z,2.27
2019-06-08T21:17:08.258Z,2.50
2019-06-08T21:19:37.462Z,2.13
2019-06-08T21:22:08.219Z,2.27
2019-06-08T21:24:37.639Z,2.30
2019-06-08T21:27:08.205Z,2.27
2019-06-08T21:29:47.639Z,2.10
2019-06-08T21:32:09.407Z,2.00
2019-06-08T21:34:38.978Z,2.80
2019-06-08T21:37:09.170Z,2.43
2019-06-08T21:39:39.822Z,2.73
2019-06-08T21:42:09.511Z,2.50
2019-06-08T21:44:39.080Z,2.40
2019-06-08T21:47:08.409Z,2.47
2019-06-08T21:49:38.435Z,2.53
2019-06-08T21:52:08.606Z,3.30
2019-06-08T21:54:37.811Z,3.03
2019-06-08T21:57:09.539Z,4.20
2019-06-08T21:59:38.328Z,4.20
2019-06-08T22:02:48.135Z,3.47
2019-06-08T22:05:17.780Z,3.10
2019-06-08T22:07:47.261Z,3.20
2019-06-08T22:10:37.733Z,2.80
2019-06-08T22:13:11.605Z,3.13
2019-06-08T22:15:39.763Z,3.23
2019-06-08T22:18:10.971Z,3.67
2019-06-08T22:20:40.822Z,3.40
2019-06-08T22:23:10.106Z,3.60
2019-06-08T22:25:39.409Z,3.40
2019-06-08T22:28:09.029Z,2.60
2019-06-08T22:30:42.761Z,2.60
2019-06-08T22:33:09.260Z,2.20
2019-06-08T22:35:38.588Z,2.40
2019-06-08T22:38:08.719Z,2.03
2019-06-08T22:40:39.660Z,1.87
2019-06-08T22:43:09.220Z,2.50
2019-06-08T22:45:39.391Z,2.13
2019-06-08T22:48:08.618Z,2.50
2019-06-08T22:50:38.386Z,2.30
2019-06-08T22:53:09.919Z,2.10
2019-06-08T22:55:39.215Z,2.70
2019-06-08T22:58:08.831Z,2.50
2019-06-08T23:00:51.810Z,2.73
2019-06-08T23:03:09.371Z,2.60
2019-06-08T23:05:39.083Z,2.43
2019-06-08T23:08:09.418Z,2.67
2019-06-08T23:10:39.696Z,2.43
2019-06-08T23:13:08.906Z,2.40
2019-06-08T23:15:38.428Z,2.43
2019-06-08T23:18:09.456Z,2.40
2019-06-08T23:20:39.195Z,2.40
2019-06-08T23:23:09.053Z,1.90
2019-06-08T23:25:39.461Z,2.10
2019-06-08T23:28:09.876Z,2.37
2019-06-08T23:30:40.401Z,2.47
2019-06-08T23:33:11.385Z,2.37
2019-06-08T23:36:02.969Z,2.80
2019-06-08T23:40:47.374Z,2.00
2019-06-08T23:43:18.093Z,2.10
2019-06-08T23:45:47.930Z,2.30
2019-06-08T23:48:17.554Z,2.20
2019-06-08T23:50:48.158Z,2.10
2019-06-08T23:53:18.377Z,2.20
2019-06-08T23:55:48.064Z,2.20
2019-06-08T23:58:18.597Z,2.10
